createdAt,value
2023-04-18T00:00:54.414Z,5.55
2023-04-18T00:03:59.223Z,6.60
2023-04-18T00:07:04.965Z,5.25
2023-04-18T00:10:10.936Z,5.47
2023-04-18T00:13:15.591Z,5.57
2023-04-18T00:16:20.571Z,5.75
2023-04-18T00:19:25.358Z,6.13
2023-04-18T00:22:31.079Z,6.68
2023-04-18T00:25:37.468Z,7.13
2023-04-18T00:28:43.618Z,7.15
2023-04-18T00:31:48.400Z,7.43
2023-04-18T00:34:53.307Z,6.93
2023-04-18T00:37:58.254Z,5.60
2023-04-18T00:41:04.075Z,5.00
2023-04-18T00:44:09.341Z,6.40
2023-04-18T00:47:14.267Z,5.10
2023-04-18T00:50:19.677Z,4.95
2023-04-18T00:53:25.133Z,5.90
2023-04-18T00:56:31.129Z,3.80
2023-04-18T00:59:36.723Z,4.30
2023-04-18T01:02:41.361Z,4.47
2023-04-18T01:05:47.403Z,3.65
2023-04-18T01:08:50.995Z,3.92
2023-04-18T01:11:54.614Z,4.47
2023-04-18T01:14:59.665Z,4.28
2023-04-18T01:18:05.537Z,4.72
2023-04-18T01:21:10.967Z,6.13
2023-04-18T01:24:17.357Z,6.18
2023-04-18T01:27:20.951Z,6.10
2023-04-18T01:30:25.053Z,7.10
2023-04-18T01:33:28.856Z,7.05
2023-04-18T01:36:33.551Z,5.78
2023-04-18T01:39:39.028Z,7.32
2023-04-18T01:42:42.794Z,7.38
2023-04-18T01:45:47.153Z,6.28
2023-04-18T01:48:50.960Z,6.55
2023-04-18T01:51:56.544Z,6.78
2023-04-18T01:55:03.068Z,7.03
2023-04-18T01:58:06.964Z,7.70
2023-04-18T02:01:12.235Z,7.25
2023-04-18T02:04:15.758Z,7.63
2023-04-18T02:07:19.463Z,8.38
2023-04-18T02:10:22.612Z,8.48
2023-04-18T02:13:26.303Z,8.32
2023-04-18T02:16:30.443Z,8.60
2023-04-18T02:19:33.757Z,8.38
2023-04-18T02:22:41.318Z,7.90
2023-04-18T02:25:46.055Z,8.35
2023-04-18T02:28:50.123Z,7.20
2023-04-18T02:31:54.530Z,8.10
2023-04-18T02:34:57.822Z,7.88
2023-04-18T02:38:01.853Z,6.80
2023-04-18T02:41:06.212Z,7.22
2023-04-18T02:44:10.152Z,7.05
2023-04-18T02:47:18.935Z,7.10
2023-04-18T02:50:23.178Z,7.80
2023-04-18T02:53:27.977Z,7.05
2023-04-18T02:56:32.291Z,6.40
2023-04-18T02:59:59.745Z,3.75
2023-04-18T03:03:23.793Z,3.80
2023-04-18T03:06:43.445Z,6.38
2023-04-18T03:09:48.863Z,5.93
2023-04-18T03:12:58.239Z,4.40
2023-04-18T03:16:03.589Z,4.85
2023-04-18T03:19:12.987Z,2.70
2023-04-18T03:22:21.284Z,2.90
2023-04-18T03:25:37.366Z,2.70
2023-04-18T03:28:43.302Z,2.27
2023-04-18T03:31:51.045Z,2.42
2023-04-18T03:34:57.534Z,1.88
2023-04-18T03:38:04.952Z,1.48
2023-04-18T03:41:14.898Z,1.40
2023-04-18T03:44:20.210Z,1.70
2023-04-18T03:47:24.373Z,1.90
2023-04-18T03:50:33.252Z,2.22
2023-04-18T03:53:41.060Z,2.17
2023-04-18T03:56:47.473Z,4.70
2023-04-18T03:59:52.376Z,3.08
2023-04-18T04:02:57.812Z,1.20
2023-04-18T04:06:03.814Z,1.38
2023-04-18T04:09:10.676Z,1.40
2023-04-18T04:12:16.427Z,1.70
2023-04-18T04:15:22.592Z,1.40
2023-04-18T04:18:36.700Z,1.42
2023-04-18T04:21:42.713Z,1.80
2023-04-18T04:24:54.811Z,1.55
2023-04-18T04:28:08.949Z,1.40
2023-04-18T04:31:25.533Z,1.67
2023-04-18T04:34:32.442Z,1.60
2023-04-18T04:37:39.635Z,1.90
2023-04-18T04:40:55.040Z,2.67
2023-04-18T04:44:00.346Z,2.00
2023-04-18T04:47:12.453Z,2.13
2023-04-18T04:50:20.655Z,2.13
2023-04-18T04:53:28.680Z,1.70
2023-04-18T04:56:36.336Z,2.13
2023-04-18T04:59:44.702Z,2.72
2023-04-18T05:02:52.146Z,2.77
2023-04-18T05:09:03.752Z,2.30
2023-04-18T05:12:10.159Z,2.47
2023-04-18T05:15:16.841Z,2.77
2023-04-18T05:18:23.148Z,3.10
2023-04-18T05:21:27.111Z,2.35
2023-04-18T05:24:30.637Z,2.10
2023-04-18T05:27:33.883Z,2.58
2023-04-18T05:30:38.613Z,3.20
2023-04-18T05:33:41.739Z,2.55
2023-04-18T05:36:45.525Z,2.13
2023-04-18T05:39:51.569Z,2.33
2023-04-18T05:42:54.720Z,1.50
2023-04-18T05:45:58.658Z,2.30
2023-04-18T05:49:02.187Z,1.90
2023-04-18T05:52:05.859Z,1.80
2023-04-18T05:55:10.164Z,1.60
2023-04-18T05:58:13.298Z,1.73
2023-04-18T06:01:19.313Z,1.73
2023-04-18T06:04:22.805Z,2.30
2023-04-18T06:07:26.283Z,1.65
2023-04-18T06:10:30.413Z,2.33
2023-04-18T06:13:34.647Z,2.00
2023-04-18T06:16:41.736Z,2.03
2023-04-18T06:19:46.320Z,1.88
2023-04-18T06:22:49.468Z,2.20
2023-04-18T06:25:52.880Z,2.20
2023-04-18T06:28:58.784Z,2.80
2023-04-18T06:32:03.563Z,3.70
2023-04-18T06:35:08.141Z,3.30
2023-04-18T06:38:15.629Z,2.88
2023-04-18T06:41:20.602Z,2.83
2023-04-18T06:44:26.469Z,3.28
2023-04-18T06:47:31.104Z,3.10
2023-04-18T06:50:38.176Z,2.88
2023-04-18T06:53:42.289Z,2.53
2023-04-18T06:56:47.039Z,2.92
2023-04-18T06:59:52.478Z,2.30
2023-04-18T07:02:58.219Z,3.08
2023-04-18T07:06:03.078Z,2.67
2023-04-18T07:09:10.088Z,2.60
2023-04-18T07:12:15.998Z,2.10
2023-04-18T07:15:21.363Z,2.55
2023-04-18T07:18:36.709Z,2.58
2023-04-18T07:21:44.763Z,2.70
2023-04-18T07:24:51.065Z,2.15
2023-04-18T07:28:00.973Z,2.37
2023-04-18T07:31:07.153Z,2.35
2023-04-18T07:34:13.596Z,2.33
2023-04-18T07:37:20.212Z,2.13
2023-04-18T07:40:26.438Z,2.40
2023-04-18T07:43:35.615Z,2.38
2023-04-18T07:46:45.381Z,2.03
2023-04-18T07:49:50.725Z,2.35
2023-04-18T07:52:57.196Z,2.22
2023-04-18T07:56:04.222Z,2.15
2023-04-18T07:59:09.140Z,2.15
2023-04-18T08:02:12.961Z,1.90
2023-04-18T08:05:18.259Z,1.80
2023-04-18T08:08:22.023Z,1.95
2023-04-18T08:11:26.168Z,2.58
2023-04-18T08:14:31.019Z,3.40
2023-04-18T08:17:36.941Z,2.90
2023-04-18T08:20:43.414Z,3.20
2023-04-18T08:23:48.769Z,2.00
2023-04-18T08:26:54.318Z,2.13
2023-04-18T08:30:00.541Z,1.80
2023-04-18T08:33:06.237Z,2.55
2023-04-18T08:36:13.418Z,2.38
2023-04-18T08:39:22.706Z,1.80
2023-04-18T08:45:49.575Z,1.75
2023-04-18T08:49:00.292Z,2.13
2023-04-18T08:52:15.060Z,2.00
2023-04-18T08:55:23.574Z,2.53
2023-04-18T08:58:36.827Z,2.00
2023-04-18T09:01:58.428Z,2.30
2023-04-18T09:05:21.171Z,2.75
2023-04-18T09:08:29.943Z,2.85
2023-04-18T09:11:35.003Z,3.55
2023-04-18T09:14:44.495Z,3.15
2023-04-18T09:17:54.386Z,3.67
2023-04-18T09:21:16.631Z,3.30
2023-04-18T09:24:23.437Z,2.50
2023-04-18T09:27:27.689Z,3.50
2023-04-18T09:30:40.180Z,2.28
2023-04-18T09:33:57.739Z,2.72
2023-04-18T09:37:13.159Z,3.72
2023-04-18T09:40:20.639Z,4.00
2023-04-18T09:43:30.055Z,2.45
2023-04-18T09:46:39.422Z,3.53
2023-04-18T09:49:47.594Z,4.20
2023-04-18T09:52:56.233Z,3.65
2023-04-18T09:56:03.611Z,4.13
2023-04-18T09:59:12.481Z,4.68
2023-04-18T10:02:23.822Z,3.00
2023-04-18T10:05:34.753Z,4.03
2023-04-18T10:08:41.990Z,3.78
2023-04-18T10:11:48.532Z,4.90
2023-04-18T10:14:56.476Z,5.25
2023-04-18T10:21:14.347Z,5.30
2023-04-18T10:25:07.016Z,5.72
2023-04-18T10:28:11.578Z,5.40
2023-04-18T10:31:18.313Z,5.50
2023-04-18T10:34:22.257Z,6.13
2023-04-18T10:37:27.849Z,6.18
2023-04-18T10:40:35.312Z,6.45
2023-04-18T10:44:18.667Z,5.72
2023-04-18T10:47:22.619Z,5.15
2023-04-18T10:50:27.586Z,6.30
2023-04-18T10:53:31.093Z,4.95
2023-04-18T10:56:35.535Z,5.03
2023-04-18T10:59:53.050Z,4.13
2023-04-18T11:02:59.254Z,4.18
2023-04-18T11:06:04.955Z,4.17
2023-04-18T11:09:14.244Z,4.95
2023-04-18T11:12:18.359Z,5.38
2023-04-18T11:15:24.062Z,4.78
2023-04-18T11:18:27.552Z,5.13
2023-04-18T11:21:31.140Z,4.38
2023-04-18T11:24:35.902Z,4.68
2023-04-18T11:27:42.463Z,3.88
2023-04-18T11:30:49.343Z,4.63
2023-04-18T11:33:55.726Z,4.60
2023-04-18T11:37:00.589Z,6.70
2023-04-18T11:40:15.605Z,6.30
2023-04-18T11:43:25.978Z,4.75
2023-04-18T11:46:40.365Z,5.05
2023-04-18T11:49:46.199Z,3.85
2023-04-18T11:52:57.364Z,3.75
2023-04-18T12:03:21.642Z,2.80
2023-04-18T12:06:33.279Z,2.47
2023-04-18T12:13:09.698Z,2.38
2023-04-18T12:16:23.403Z,1.92
2023-04-18T12:23:10.356Z,2.42
2023-04-18T12:37:44.851Z,2.70
2023-04-18T12:40:50.170Z,2.67
2023-04-18T12:43:54.966Z,2.47
2023-04-18T13:38:49.142Z,28.55
2023-04-18T13:41:56.082Z,27.73
2023-04-18T13:48:18.601Z,26.38
2023-04-18T13:51:22.013Z,27.02
2023-04-18T13:54:30.299Z,24.90
2023-04-18T13:58:02.148Z,23.13
2023-04-18T14:01:07.336Z,26.10
2023-04-18T14:04:11.509Z,26.48
2023-04-18T14:10:50.328Z,29.20
2023-04-18T14:13:58.942Z,31.27
2023-04-18T14:17:29.765Z,28.58
2023-04-18T14:20:37.830Z,29.40
2023-04-18T14:30:41.956Z,27.58
2023-04-18T14:33:45.438Z,30.17
2023-04-18T14:36:49.984Z,29.77
2023-04-18T14:44:15.497Z,29.20
2023-04-18T14:47:30.450Z,28.83
2023-04-18T14:57:46.780Z,30.98
2023-04-18T15:04:56.290Z,24.95
2023-04-18T15:09:09.573Z,13.07
2023-04-18T15:16:14.840Z,16.13
2023-04-18T15:28:08.515Z,14.80
2023-04-18T15:35:02.229Z,10.90
2023-04-18T15:44:45.126Z,9.52
2023-04-18T15:51:10.556Z,5.80
2023-04-18T15:54:15.458Z,6.93
2023-04-18T15:57:23.289Z,8.75
2023-04-18T16:00:31.097Z,11.05
2023-04-18T16:06:56.831Z,13.30
2023-04-18T16:13:45.037Z,17.65
2023-04-18T16:16:51.897Z,17.50
2023-04-18T16:19:59.184Z,15.13
2023-04-18T16:23:04.222Z,11.32
2023-04-18T16:26:10.475Z,11.35
2023-04-18T16:29:18.912Z,11.00
2023-04-18T16:32:24.027Z,9.68
2023-04-18T16:35:27.985Z,10.80
2023-04-18T16:38:32.465Z,9.85
2023-04-18T16:41:36.517Z,10.15
2023-04-18T16:44:41.488Z,8.43
2023-04-18T16:47:45.219Z,7.80
2023-04-18T16:50:49.655Z,8.77
2023-04-18T16:53:53.623Z,8.38
2023-04-18T16:56:58.013Z,7.30
2023-04-18T17:00:03.625Z,7.68
2023-04-18T17:03:11.001Z,8.30
2023-04-18T17:06:15.485Z,8.63
2023-04-18T17:09:23.635Z,8.85
2023-04-18T17:12:28.255Z,9.25
2023-04-18T17:15:33.326Z,12.43
2023-04-18T17:18:37.080Z,11.88
2023-04-18T17:21:43.394Z,8.25
2023-04-18T17:24:46.753Z,11.55
2023-04-18T17:27:51.134Z,18.92
2023-04-18T17:30:54.600Z,14.60
2023-04-18T17:33:59.342Z,16.23
2023-04-18T17:37:04.672Z,16.63
2023-04-18T17:40:11.657Z,12.13
2023-04-18T17:43:15.524Z,12.50
2023-04-18T17:46:19.681Z,11.27
2023-04-18T17:49:23.718Z,12.13
2023-04-18T17:52:29.368Z,12.52
2023-04-18T17:55:33.111Z,9.52
2023-04-18T17:58:36.700Z,7.03
2023-04-18T18:01:43.137Z,6.55
2023-04-18T18:04:49.284Z,6.63
2023-04-18T18:07:54.020Z,6.57
2023-04-18T18:10:58.495Z,6.35
2023-04-18T18:14:02.720Z,5.50
2023-04-18T18:17:06.706Z,5.93
2023-04-18T18:20:16.263Z,5.28
2023-04-18T18:23:20.671Z,6.93
2023-04-18T18:26:24.026Z,5.57
2023-04-18T18:29:29.868Z,5.35
2023-04-18T18:32:34.087Z,5.25
2023-04-18T18:38:55.534Z,5.43
2023-04-18T18:41:59.673Z,4.53
2023-04-18T18:45:04.371Z,5.90
2023-04-18T18:48:08.214Z,5.78
2023-04-18T18:51:12.493Z,5.15
2023-04-18T18:54:16.638Z,5.00
2023-04-18T18:57:19.645Z,4.25
2023-04-18T19:00:23.118Z,5.95
2023-04-18T19:03:27.163Z,6.05
2023-04-18T19:06:30.566Z,4.57
2023-04-18T19:09:33.761Z,5.10
2023-04-18T19:12:39.646Z,6.75
2023-04-18T19:15:42.672Z,6.05
2023-04-18T19:18:48.010Z,5.10
2023-04-18T19:21:51.150Z,6.32
2023-04-18T19:24:54.219Z,5.63
2023-04-18T19:27:57.298Z,5.10
2023-04-18T19:31:01.369Z,6.18
2023-04-18T19:34:04.937Z,6.00
2023-04-18T19:37:08.745Z,6.72
2023-04-18T19:40:13.004Z,8.27
2023-04-18T19:43:16.401Z,7.93
2023-04-18T19:46:20.249Z,8.25
2023-04-18T19:49:24.068Z,8.13
2023-04-18T19:52:27.892Z,6.30
2023-04-18T19:55:32.545Z,6.07
2023-04-18T19:58:45.409Z,5.38
2023-04-18T20:01:49.543Z,5.53
2023-04-18T20:04:53.459Z,5.63
2023-04-18T20:07:58.024Z,5.38
2023-04-18T20:11:01.600Z,4.93
2023-04-18T20:14:05.541Z,3.95
2023-04-18T20:17:09.312Z,3.90
2023-04-18T20:20:13.990Z,4.15
2023-04-18T20:23:17.676Z,2.78
2023-04-18T20:26:21.312Z,3.63
2023-04-18T20:29:25.475Z,3.03
2023-04-18T20:32:29.736Z,3.42
2023-04-18T20:35:33.649Z,3.33
2023-04-18T20:38:37.749Z,3.35
2023-04-18T20:41:47.264Z,3.35
2023-04-18T20:44:54.214Z,3.85
2023-04-18T20:47:59.498Z,3.67
2023-04-18T20:51:02.639Z,3.22
2023-04-18T20:54:06.956Z,3.30
2023-04-18T20:57:10.160Z,3.30
2023-04-18T21:00:17.533Z,2.60
2023-04-18T21:03:21.177Z,3.00
2023-04-18T21:06:24.356Z,2.30
2023-04-18T21:09:28.497Z,3.30
2023-04-18T21:12:32.144Z,4.47
2023-04-18T21:15:36.806Z,2.10
2023-04-18T21:18:40.984Z,2.72
2023-04-18T21:21:44.333Z,3.90
2023-04-18T21:24:48.779Z,2.75
2023-04-18T21:27:52.455Z,2.88
2023-04-18T21:30:56.401Z,2.60
2023-04-18T21:34:03.255Z,2.65
2023-04-18T21:37:07.026Z,2.78
2023-04-18T21:40:12.885Z,2.83
2023-04-18T21:43:16.207Z,2.92
2023-04-18T21:46:20.170Z,2.75
2023-04-18T21:49:23.358Z,1.95
2023-04-18T21:52:29.701Z,2.90
2023-04-18T21:55:33.106Z,2.72
2023-04-18T21:58:36.863Z,2.42
2023-04-18T22:01:40.202Z,2.40
2023-04-18T22:04:46.524Z,2.70
2023-04-18T22:07:58.116Z,2.97
2023-04-18T22:11:02.591Z,3.03
2023-04-18T22:14:06.501Z,4.30
2023-04-18T22:17:10.234Z,4.97
2023-04-18T22:20:14.396Z,4.20
2023-04-18T22:23:17.698Z,4.72
2023-04-18T22:26:21.660Z,4.13
2023-04-18T22:29:25.320Z,3.63
2023-04-18T22:32:29.172Z,2.72
2023-04-18T22:35:34.730Z,3.40
2023-04-18T22:38:38.787Z,3.42
2023-04-18T22:41:46.994Z,4.25
2023-04-18T22:44:51.305Z,3.38
2023-04-18T22:47:55.159Z,3.60
2023-04-18T22:50:58.477Z,3.30
2023-04-18T22:54:02.819Z,3.70
2023-04-18T22:57:06.402Z,4.88
2023-04-18T23:00:12.779Z,6.80
2023-04-18T23:03:16.219Z,10.98
2023-04-18T23:06:21.223Z,8.82
2023-04-18T23:09:26.021Z,10.07
2023-04-18T23:12:29.844Z,8.32
2023-04-18T23:15:38.649Z,9.85
2023-04-18T23:18:43.142Z,12.35
2023-04-18T23:21:49.660Z,11.88
2023-04-18T23:24:53.712Z,13.18
2023-04-18T23:28:04.389Z,15.32
2023-04-18T23:34:37.295Z,12.10
2023-04-18T23:37:40.887Z,10.70
2023-04-18T23:40:45.964Z,7.80
2023-04-18T23:47:07.487Z,11.02
2023-04-18T23:50:13.080Z,9.65
2023-04-18T23:53:20.993Z,10.27
2023-04-18T23:56:25.163Z,12.45
2023-04-18T23:59:29.352Z,10.20
